Time;durP1;ratioP1;P1;durP2;ratioP2;P2;SDS_P1;SDS_P2;PMS_P1;PMS_P2;Temp;Humidity;BMP_temperature;BMP_pressure;BME280_temperature;BME280_humidity;BME280_pressure;Samples;Min_cycle;Max_cycle;Signal;HPM_P1;HPM_P2
2021/09/15 00:01:06;;;;;;;12.80;6.05;;;17.30;99.90;;;17.93;76.91;101101.28;5108371;28;20319;-70
2021/09/15 00:03:35;;;;;;;13.48;6.35;;;17.30;99.90;;;17.91;76.81;101108.47;5104966;28;20191;-69
2021/09/15 00:06:02;;;;;;;13.77;6.57;;;17.30;99.90;;;17.89;76.89;101100.63;5092900;28;20317;-70
2021/09/15 00:08:28;;;;;;;16.45;6.28;;;17.30;99.90;;;17.88;77.17;101095.44;5090587;28;20289;-70
2021/09/15 00:10:55;;;;;;;12.15;5.65;;;17.20;99.90;;;17.87;77.33;101096.34;5100907;28;20236;-69
2021/09/15 00:13:22;;;;;;;13.80;6.88;;;17.20;99.90;;;17.87;77.20;101094.56;5098689;28;20658;-71
2021/09/15 00:15:50;;;;;;;13.60;6.45;;;17.20;99.90;;;17.86;77.28;101095.53;5103195;28;20240;-70
2021/09/15 00:18:17;;;;;;;12.48;6.20;;;17.20;99.90;;;17.85;77.35;101079.72;5093263;28;20705;-68
2021/09/15 00:20:44;;;;;;;12.38;6.10;;;17.20;99.90;;;17.86;77.10;101079.63;5099879;28;20214;-69
2021/09/15 00:23:11;;;;;;;13.15;6.32;;;17.20;99.90;;;17.86;77.36;101081.41;5100516;28;20210;-70
2021/09/15 00:25:38;;;;;;;11.75;5.90;;;17.20;99.90;;;17.84;77.59;101076.22;5089613;28;20188;-69
2021/09/15 00:28:05;;;;;;;12.68;6.40;;;17.20;99.90;;;17.84;77.64;101078.00;5104334;28;20195;-68
2021/09/15 00:30:31;;;;;;;13.50;6.30;;;17.20;99.90;;;17.83;77.70;101071.03;5092023;28;20208;-70
2021/09/15 00:32:59;;;;;;;13.35;7.10;;;17.20;99.90;;;17.82;77.40;101064.84;5104683;28;20211;-70
2021/09/15 00:35:26;;;;;;;12.73;6.68;;;17.20;99.90;;;17.80;77.48;101064.09;5094600;28;20179;-70
2021/09/15 00:37:53;;;;;;;14.18;7.18;;;17.20;99.90;;;17.79;77.69;101061.53;5094505;28;20186;-68
2021/09/15 00:40:20;;;;;;;14.98;6.32;;;17.10;99.90;;;17.77;77.91;101066.09;5096501;28;20219;-69
2021/09/15 00:42:48;;;;;;;14.55;6.55;;;17.10;99.90;;;17.75;77.58;101063.53;5096864;28;20210;-70
2021/09/15 00:45:15;;;;;;;12.63;6.18;;;17.10;99.90;;;17.75;77.92;101062.69;5093856;28;20535;-70
2021/09/15 00:47:41;;;;;;;14.18;6.70;;;17.10;99.90;;;17.72;78.05;101073.47;5108771;28;20307;-68
2021/09/15 00:50:12;;;;;;;15.50;7.00;;;17.00;99.90;;;17.71;77.97;101072.63;5098973;28;20202;-69
2021/09/15 00:52:38;;;;;;;12.35;6.55;;;17.10;99.90;;;17.71;78.17;101067.34;5093174;28;20294;-70
2021/09/15 00:55:09;;;;;;;12.60;7.05;;;17.10;99.90;;;17.72;78.04;101074.31;5095731;28;20283;-68
2021/09/15 00:57:38;;;;;;;13.30;6.80;;;17.10;99.90;;;17.74;78.18;101076.88;5092394;28;20186;-69
2021/09/15 01:00:07;;;;;;;13.75;6.35;;;17.10;99.90;;;17.73;77.83;101076.03;5102638;28;20703;-67
2021/09/15 01:02:34;;;;;;;13.65;6.53;;;17.10;99.90;;;17.73;78.14;101067.22;5098500;27;20214;-68
2021/09/15 01:05:11;;;;;;;13.05;6.97;;;17.10;99.90;;;17.73;78.02;101075.19;5092737;28;20187;-68
2021/09/15 01:07:39;;;;;;;12.68;6.75;;;17.10;99.90;;;17.71;78.33;101075.28;5093947;28;20227;-68
2021/09/15 01:10:09;;;;;;;13.68;6.32;;;17.10;99.90;;;17.71;78.12;101077.91;5095388;28;20674;-69
2021/09/15 01:12:42;;;;;;;14.38;6.68;;;17.00;99.90;;;17.69;78.51;101068.34;5097095;28;20207;-69
2021/09/15 01:15:28;;;;;;;17.85;7.07;;;17.10;99.90;;;17.68;78.22;101066.66;5101388;28;20221;-67
2021/09/15 01:18:20;;;;;;;14.52;7.07;;;17.10;99.90;;;17.66;78.75;101064.13;5094292;28;20187;-66
2021/09/15 01:21:01;;;;;;;13.13;6.45;;;17.10;99.90;;;17.66;78.56;101064.13;5094337;28;20218;-72
2021/09/15 01:23:40;;;;;;;11.65;6.35;;;17.00;99.90;;;17.67;78.57;101075.53;5090350;28;20207;-70
2021/09/15 01:26:33;;;;;;;14.65;6.90;;;17.00;99.90;;;17.65;78.35;101065.03;5099038;28;20239;-70
2021/09/15 01:29:32;;;;;;;16.95;6.80;;;17.10;99.90;;;17.63;78.83;101063.44;5102908;28;20215;-70
2021/09/15 01:32:08;;;;;;;14.63;7.25;;;17.00;99.90;;;17.63;78.69;101053.72;5108742;28;20687;-70
2021/09/15 01:34:39;;;;;;;13.65;6.57;;;17.00;99.90;;;17.65;78.78;101043.03;5091266;28;20202;-70
2021/09/15 01:37:13;;;;;;;15.55;7.35;;;17.10;99.90;;;17.64;78.54;101034.22;5093068;28;20183;-70
2021/09/15 01:39:52;;;;;;;13.15;6.57;;;17.00;99.90;;;17.62;78.82;101041.41;5100499;28;20266;-67
2021/09/15 01:42:20;;;;;;;15.57;7.25;;;17.00;99.90;;;17.60;78.85;101035.34;5096165;28;20276;-70
2021/09/15 01:44:47;;;;;;;14.82;7.03;;;17.00;99.90;;;17.58;79.11;101047.00;5088554;28;20668;-70
2021/09/15 01:47:18;;;;;;;16.90;7.18;;;16.90;99.90;;;17.57;79.09;101034.69;5102994;28;20274;-68
2021/09/15 01:49:46;;;;;;;14.23;7.65;;;16.90;99.90;;;17.52;79.15;101041.13;5090747;28;20665;-68
2021/09/15 01:52:18;;;;;;;16.75;8.10;;;16.90;99.90;;;17.50;79.59;101036.84;5098384;28;20563;-70
2021/09/15 01:54:45;;;;;;;15.43;7.25;;;16.90;99.90;;;17.48;79.65;101036.94;5100914;28;20191;-70
2021/09/15 01:57:13;;;;;;;13.82;7.45;;;16.80;99.90;;;17.46;79.73;101033.53;5098149;28;20195;-69
2021/09/15 01:59:59;;;;;;;14.43;7.30;;;16.80;99.90;;;17.45;79.72;101025.66;5101333;28;20210;-69
2021/09/15 02:02:41;;;;;;;14.60;8.05;;;16.80;99.90;;;17.42;79.77;101018.78;5103020;28;20215;-69
2021/09/15 02:05:20;;;;;;;13.23;7.53;;;16.80;99.90;;;17.40;79.82;101023.31;5102846;28;20187;-69
2021/09/15 02:08:01;;;;;;;15.27;7.47;;;16.80;99.90;;;17.39;79.97;101023.41;5096761;28;20666;-70
2021/09/15 02:10:38;;;;;;;17.10;8.32;;;16.70;99.90;;;17.37;80.27;101026.16;5096070;28;20837;-69
2021/09/15 02:13:07;;;;;;;17.60;8.18;;;16.70;99.90;;;17.34;80.07;101015.75;5094301;28;20223;-69
2021/09/15 02:15:36;;;;;;;20.55;10.50;;;16.70;99.90;;;17.34;80.20;101009.59;5115711;28;20247;-69
2021/09/15 02:18:03;;;;;;;18.95;8.75;;;16.70;99.90;;;17.31;80.17;101013.25;5096094;28;20191;-70
2021/09/15 02:20:50;;;;;;;17.73;8.43;;;16.70;99.90;;;17.30;80.60;101003.63;5096553;28;20294;-68
2021/09/15 02:23:31;;;;;;;15.13;7.88;;;16.70;99.90;;;17.29;80.52;101001.94;5098575;28;20191;-70
2021/09/15 02:26:10;;;;;;;16.35;7.68;;;16.70;99.90;;;17.28;80.83;101004.69;5100384;28;20218;-69
2021/09/15 02:28:45;;;;;;;15.32;8.23;;;16.70;99.90;;;17.26;80.46;101007.41;5099058;28;20600;-69
2021/09/15 02:31:32;;;;;;;18.08;7.93;;;16.70;99.90;;;17.26;80.88;101010.03;5110080;28;20228;-70
2021/09/15 02:34:13;;;;;;;15.40;7.63;;;16.70;99.90;;;17.24;80.64;101014.59;5097522;28;20187;-70
2021/09/15 02:36:55;;;;;;;18.13;8.10;;;16.70;99.90;;;17.26;80.74;101009.22;5096634;28;20203;-71
2021/09/15 02:39:46;;;;;;;14.15;7.85;;;16.70;99.90;;;17.26;80.75;101011.88;5109946;28;20222;-70
2021/09/15 02:42:23;;;;;;;16.08;8.30;;;16.60;99.90;;;17.27;81.00;101002.97;5098294;28;20199;-70
2021/09/15 02:45:02;;;;;;;18.00;8.10;;;16.70;99.90;;;17.28;80.81;101002.03;5107366;28;20199;-70
2021/09/15 02:47:38;;;;;;;17.50;8.65;;;16.70;99.90;;;17.27;80.93;100995.91;5099751;28;20548;-70
2021/09/15 02:50:16;;;;;;;15.35;8.50;;;16.70;99.90;;;17.26;81.32;101001.28;5097566;28;20199;-71
2021/09/15 02:53:08;;;;;;;15.70;8.23;;;16.70;99.90;;;17.25;81.22;100989.84;5096222;28;21076;-68
2021/09/15 02:55:55;;;;;;;12.65;7.70;;;16.70;99.90;;;17.24;81.20;100980.22;5099631;28;20882;-70
2021/09/15 02:58:54;;;;;;;16.45;8.30;;;16.70;99.90;;;17.24;81.17;100977.56;5068115;28;20207;-70
2021/09/15 03:01:39;;;;;;;17.40;8.95;;;16.70;99.90;;;17.22;81.39;100974.16;5098889;28;20284;-70
2021/09/15 03:04:18;;;;;;;15.68;8.23;;;16.70;99.90;;;17.19;81.72;100969.06;5106551;28;20222;-70
2021/09/15 03:06:59;;;;;;;16.38;8.73;;;16.60;99.90;;;17.17;81.55;100976.22;5110231;28;20187;-69
2021/09/15 03:09:31;;;;;;;14.77;8.60;;;16.60;99.90;;;17.17;81.80;100980.66;5101350;27;20182;-71
2021/09/15 03:11:59;;;;;;;18.30;9.20;;;16.60;99.90;;;17.16;81.85;100985.09;5097618;28;20226;-70
2021/09/15 03:14:26;;;;;;;15.48;8.10;;;16.60;99.90;;;17.14;81.66;100976.41;5103048;28;20183;-69
2021/09/15 03:16:54;;;;;;;19.08;8.90;;;16.60;99.90;;;17.14;81.85;100976.41;5103601;28;20673;-70
2021/09/15 03:19:21;;;;;;;15.88;8.68;;;16.60;99.90;;;17.15;82.14;100969.31;5097460;28;21789;-70
2021/09/15 03:21:48;;;;;;;16.85;9.13;;;16.60;99.90;;;17.14;81.84;100968.50;5105254;27;20618;-70
2021/09/15 03:24:15;;;;;;;16.98;8.63;;;16.60;99.90;;;17.16;82.03;100963.94;5102131;28;20279;-70
2021/09/15 03:26:49;;;;;;;16.17;8.57;;;16.60;99.90;;;17.17;82.17;100965.66;5096864;28;20277;-70
2021/09/15 03:29:18;;;;;;;14.50;8.35;;;16.60;99.90;;;17.19;82.26;100957.63;5101452;28;20186;-71
2021/09/15 03:31:45;;;;;;;16.23;8.85;;;16.60;99.90;;;17.19;82.38;100955.84;5097763;28;20206;-70
2021/09/15 03:34:12;;;;;;;18.17;9.35;;;16.60;99.90;;;17.20;82.37;100949.59;5105235;28;20213;-70
2021/09/15 03:36:39;;;;;;;15.90;8.68;;;16.60;99.90;;;17.20;82.30;100946.94;5099934;28;20287;-70
2021/09/15 03:39:06;;;;;;;15.45;8.65;;;16.60;99.90;;;17.21;82.32;100940.69;5096362;28;20187;-71
2021/09/15 03:41:33;;;;;;;17.75;8.57;;;16.60;99.90;;;17.19;82.06;100939.97;5099951;28;20206;-69
2021/09/15 03:44:00;;;;;;;19.35;8.88;;;16.60;99.90;;;17.18;82.46;100946.16;5091562;28;20186;-69
2021/09/15 03:46:28;;;;;;;16.33;9.30;;;16.60;99.90;;;17.19;82.41;100941.75;5103949;28;20182;-71
2021/09/15 03:48:55;;;;;;;17.00;8.68;;;16.60;99.90;;;17.16;82.67;100932.19;5101300;28;20184;-72
2021/09/15 03:51:24;;;;;;;16.27;8.73;;;16.60;99.90;;;17.17;82.86;100931.25;5097671;28;20206;-71
2021/09/15 03:53:51;;;;;;;16.58;9.20;;;16.60;99.90;;;17.15;82.63;100925.22;5105238;28;20715;-70
2021/09/15 03:56:17;;;;;;;18.88;9.07;;;16.60;99.90;;;17.15;82.77;100925.22;5111034;28;20191;-69
2021/09/15 03:58:44;;;;;;;18.23;9.45;;;16.60;99.90;;;17.14;82.66;100923.53;5112247;28;20179;-71
2021/09/15 04:01:14;;;;;;;17.40;9.23;;;16.60;99.90;;;17.12;82.87;100927.19;5104973;28;20295;-71
2021/09/15 04:03:42;;;;;;;17.92;10.30;;;16.50;99.90;;;17.10;82.68;100924.63;5094429;28;20183;-68
2021/09/15 04:06:09;;;;;;;17.55;9.65;;;16.50;99.90;;;17.10;83.20;100926.41;5115031;27;20210;-71
2021/09/15 04:08:36;;;;;;;16.58;9.25;;;16.50;99.90;;;17.09;83.15;100930.88;5102762;28;20614;-71
2021/09/15 04:11:04;;;;;;;18.25;9.27;;;16.50;99.90;;;17.12;83.12;100922.75;5104841;28;20199;-72
2021/09/15 04:13:30;;;;;;;17.17;9.75;;;16.60;99.90;;;17.13;83.23;100920.97;5095184;28;20195;-72
2021/09/15 04:15:57;;;;;;;18.40;8.95;;;16.60;99.90;;;17.14;83.32;100920.00;5102474;28;20562;-72
2021/09/15 04:18:25;;;;;;;16.77;9.80;;;16.60;99.90;;;17.13;83.10;100927.09;5104533;28;20187;-71
2021/09/15 04:20:53;;;;;;;17.23;9.57;;;16.60;99.90;;;17.12;83.06;100920.09;5105854;28;20202;-72
2021/09/15 04:23:24;;;;;;;17.30;9.63;;;16.60;99.90;;;17.10;83.35;100922.00;5105096;28;20556;-70
2021/09/15 04:31:23;;;;;;;18.23;9.77;;;16.50;99.90;;;17.04;83.46;100919.72;5099555;28;20237;-71
2021/09/15 04:33:55;;;;;;;18.95;9.60;;;16.50;99.90;;;17.04;83.24;100918.88;5103543;28;20550;-69
2021/09/15 04:36:24;;;;;;;18.35;9.85;;;16.50;99.90;;;17.07;83.59;100924.84;5103609;28;20642;-71
2021/09/15 04:38:51;;;;;;;17.58;9.65;;;16.50;99.90;;;17.08;83.47;100921.22;5106714;28;20189;-71
2021/09/15 04:41:19;;;;;;;19.23;9.50;;;16.50;99.90;;;17.12;83.53;100909.53;5111295;28;20214;-69
2021/09/15 04:43:47;;;;;;;17.40;10.02;;;16.50;99.90;;;17.11;83.36;100915.75;5108214;28;20651;-70
2021/09/15 04:46:17;;;;;;;17.08;9.55;;;16.50;99.90;;;17.11;83.37;100921.03;5091458;28;20184;-70
2021/09/15 04:48:44;;;;;;;22.95;10.18;;;16.50;99.90;;;17.13;83.21;100913.03;5092659;28;20183;-71
2021/09/15 04:51:12;;;;;;;20.58;10.35;;;16.50;99.90;;;17.14;83.70;100907.66;5091019;28;20216;-70
2021/09/15 04:53:43;;;;;;;18.27;9.50;;;16.50;99.90;;;17.15;83.40;100913.75;5090575;28;20542;-71
2021/09/15 04:56:11;;;;;;;19.42;10.65;;;16.50;99.90;;;17.16;83.38;100913.66;5092747;28;20345;-69
2021/09/15 04:58:38;;;;;;;19.40;10.00;;;16.60;99.90;;;17.14;83.49;100918.22;5100673;28;20187;-70
2021/09/15 05:01:06;;;;;;;18.30;9.80;;;16.60;99.90;;;17.14;83.61;100909.44;5102622;28;20210;-70
2021/09/15 05:03:33;;;;;;;17.65;9.63;;;16.60;99.90;;;17.12;83.52;100908.66;5096263;28;20217;-70
2021/09/15 05:06:00;;;;;;;17.95;9.98;;;16.60;99.90;;;17.12;83.79;100909.53;5090601;28;20664;-71
2021/09/15 05:08:27;;;;;;;20.10;10.10;;;16.60;99.90;;;17.13;83.58;100915.69;5102249;28;20545;-71
2021/09/15 05:10:55;;;;;;;19.52;9.73;;;16.60;99.90;;;17.13;83.65;100916.50;5109933;27;20191;-70
2021/09/15 05:13:24;;;;;;;19.73;9.77;;;16.60;99.90;;;17.13;83.51;100899.81;5094304;28;20856;-69
2021/09/15 05:15:52;;;;;;;16.20;9.23;;;16.60;99.90;;;17.11;83.52;100910.44;5101317;28;20223;-71
2021/09/15 05:18:18;;;;;;;17.10;9.80;;;16.60;99.90;;;17.11;83.37;100899.03;5098930;28;20251;-69
2021/09/15 05:20:45;;;;;;;15.80;9.20;;;16.60;99.90;;;17.09;83.40;100907.06;5099118;28;20281;-71
2021/09/15 05:23:12;;;;;;;17.70;9.55;;;16.60;99.90;;;17.09;83.73;100903.56;5098488;28;20964;-71
2021/09/15 05:25:39;;;;;;;20.75;10.27;;;16.60;99.90;;;17.11;83.82;100899.88;5088355;28;20284;-69
2021/09/15 05:28:10;;;;;;;19.35;10.48;;;16.60;99.90;;;17.13;83.56;100900.63;5098699;28;20183;-71
2021/09/15 05:30:38;;;;;;;18.50;10.25;;;16.60;99.90;;;17.15;83.74;100903.19;5100540;28;20203;-71
2021/09/15 05:33:08;;;;;;;18.77;9.90;;;16.60;99.90;;;17.17;83.61;100901.31;5104387;28;20532;-72
2021/09/15 05:35:35;;;;;;;19.65;10.10;;;16.60;99.90;;;17.17;83.52;100898.66;5091988;28;20559;-71
2021/09/15 05:38:04;;;;;;;20.05;10.38;;;16.60;99.90;;;17.17;83.50;100902.16;5106263;28;20194;-70
2021/09/15 05:40:33;;;;;;;19.70;9.77;;;16.60;99.90;;;17.17;83.65;100902.16;5099006;28;20205;-70
2021/09/15 05:43:01;;;;;;;19.38;11.05;;;16.70;99.90;;;17.18;83.54;100903.84;5099141;28;20690;-71
2021/09/15 05:45:30;;;;;;;20.25;10.30;;;16.70;99.90;;;17.20;83.67;100901.97;5099127;28;20197;-71
2021/09/15 05:47:56;;;;;;;18.25;10.10;;;16.70;99.90;;;17.21;83.41;100901.00;5092492;28;20185;-71
2021/09/15 05:50:23;;;;;;;20.90;10.50;;;16.70;99.90;;;17.24;83.50;100903.50;5089850;28;20184;-70
2021/09/15 05:52:50;;;;;;;17.30;9.75;;;16.80;99.90;;;17.26;83.29;100908.69;5097981;28;20210;-69
2021/09/15 05:55:18;;;;;;;19.67;10.43;;;16.80;99.90;;;17.28;83.16;100910.28;5107238;28;20634;-69
2021/09/15 05:57:44;;;;;;;21.42;10.73;;;16.80;99.90;;;17.33;83.12;100897.59;5099448;28;20263;-69
2021/09/15 06:00:13;;;;;;;21.48;11.27;;;16.80;99.90;;;17.37;83.30;100909.72;5096708;28;20179;-70
2021/09/15 06:02:46;;;;;;;18.30;10.27;;;16.90;99.90;;;17.39;83.13;100897.25;5094582;28;20210;-70
2021/09/15 06:05:32;;;;;;;19.63;10.05;;;16.90;99.90;;;17.41;82.79;100897.97;5101876;28;20198;-70
2021/09/15 06:07:59;;;;;;;18.92;9.82;;;16.80;99.90;;;17.43;82.69;100895.25;5104135;28;20193;-70
2021/09/15 06:10:26;;;;;;;20.23;11.05;;;16.90;99.90;;;17.44;82.99;100895.16;5093498;28;20182;-69
2021/09/15 06:12:53;;;;;;;35.67;18.33;;;16.90;99.90;;;17.43;82.99;100893.44;5106486;28;20556;-69
2021/09/15 06:15:20;;;;;;;18.65;10.10;;;16.90;99.90;;;17.43;83.00;100882.84;5117362;28;20183;-70
2021/09/15 06:17:52;;;;;;;18.85;10.85;;;17.00;99.90;;;17.46;83.03;100882.69;5122913;28;20209;-70
2021/09/15 06:20:20;;;;;;;25.08;10.43;;;16.90;99.90;;;17.48;82.84;100888.75;5122011;28;20184;-70
2021/09/15 06:23:05;;;;;;;17.27;9.63;;;17.00;99.90;;;17.52;82.65;100886.75;5105227;28;20219;-69
2021/09/15 06:25:51;;;;;;;19.88;10.60;;;17.00;99.90;;;17.56;82.90;100893.56;5102448;28;20187;-70
2021/09/15 06:28:18;;;;;;;21.33;10.57;;;17.00;99.90;;;17.59;82.78;100889.84;5110434;28;20183;-70
2021/09/15 06:30:47;;;;;;;18.85;10.55;;;17.10;99.90;;;17.63;82.51;100891.38;5108474;28;20278;-69
2021/09/15 06:33:16;;;;;;;22.48;10.40;;;17.20;99.90;;;17.68;82.35;100886.63;5112096;28;20623;-70
2021/09/15 06:35:42;;;;;;;17.88;9.80;;;17.20;99.90;;;17.73;82.44;100890.69;5109401;28;20319;-71
2021/09/15 06:38:12;;;;;;;18.40;10.43;;;17.30;99.90;;;17.78;82.36;100888.59;5095771;28;20189;-70
2021/09/15 06:40:40;;;;;;;21.27;10.77;;;17.30;99.90;;;17.83;82.10;100880.34;5101884;28;20580;-70
2021/09/15 06:43:07;;;;;;;19.20;10.95;;;17.40;99.90;;;17.90;81.75;100889.59;5098979;28;20215;-71
2021/09/15 06:45:34;;;;;;;20.77;10.35;;;17.50;99.90;;;17.93;81.81;100889.41;5100815;28;20203;-70
2021/09/15 06:48:01;;;;;;;19.58;10.27;;;17.50;99.90;;;17.97;81.47;100886.44;5102086;28;20194;-70
2021/09/15 06:50:29;;;;;;;17.15;10.27;;;17.60;99.90;;;18.02;81.61;100875.56;5102204;28;21405;-70
2021/09/15 06:52:56;;;;;;;19.52;9.82;;;17.60;99.90;;;18.06;81.54;100877.03;5104075;27;20256;-70
2021/09/15 06:55:24;;;;;;;21.63;10.38;;;17.70;99.90;;;18.11;81.74;100872.28;5106757;27;20244;-70
2021/09/15 06:57:53;;;;;;;18.10;10.23;;;17.70;99.90;;;18.16;81.48;100876.34;5104273;28;20263;-67
2021/09/15 07:00:20;;;;;;;18.85;10.20;;;17.70;99.90;;;18.19;81.15;100868.19;5112867;28;20540;-69
2021/09/15 07:02:48;;;;;;;18.00;9.60;;;17.80;99.90;;;18.24;80.91;100884.63;5113464;28;20266;-69
2021/09/15 07:05:15;;;;;;;20.42;9.95;;;17.80;99.90;;;18.27;80.82;100871.16;5112307;27;20190;-70
2021/09/15 07:07:43;;;;;;;20.52;10.98;;;17.90;99.90;;;18.33;80.72;100875.22;5113305;28;20674;-70
2021/09/15 07:10:11;;;;;;;21.67;10.43;;;18.00;99.90;;;18.41;80.78;100872.94;5106868;28;20190;-68
2021/09/15 07:12:39;;;;;;;19.48;9.68;;;18.10;99.90;;;18.48;80.28;100864.47;5107043;28;20215;-70
2021/09/15 07:15:08;;;;;;;18.83;10.20;;;18.10;99.90;;;18.56;80.17;100872.75;5105403;28;20194;-70
2021/09/15 07:17:35;;;;;;;16.38;9.77;;;18.20;99.90;;;18.59;80.02;100866.38;5107301;28;20195;-70
2021/09/15 07:20:04;;;;;;;20.17;9.95;;;18.20;99.90;;;18.62;80.08;100866.19;5108764;28;20191;-70
2021/09/15 07:22:30;;;;;;;17.95;9.77;;;18.30;99.90;;;18.65;79.83;100863.31;5103720;28;20667;-70
2021/09/15 07:24:59;;;;;;;21.02;10.13;;;18.30;99.90;;;18.69;79.86;100862.16;5102892;28;20179;-68
2021/09/15 07:27:26;;;;;;;18.08;9.48;;;18.40;99.90;;;18.71;79.70;100869.06;5109511;27;20187;-72
2021/09/15 07:29:52;;;;;;;18.45;9.93;;;18.40;99.90;;;18.76;79.26;100863.44;5109234;28;20198;-68
2021/09/15 07:32:19;;;;;;;22.60;10.52;;;18.50;99.90;;;18.81;79.42;100871.91;5104847;28;20203;-69
2021/09/15 07:34:46;;;;;;;18.88;9.60;;;18.50;99.90;;;18.86;79.09;100875.09;5103492;28;20198;-70
2021/09/15 07:37:13;;;;;;;18.40;10.07;;;18.50;99.90;;;18.92;78.93;100873.84;5106187;28;20647;-68
2021/09/15 07:39:40;;;;;;;16.65;9.93;;;18.60;99.90;;;18.97;78.58;100875.22;5111074;28;20182;-68
2021/09/15 07:42:08;;;;;;;16.80;9.30;;;18.70;99.90;;;19.01;78.68;100876.69;5107812;28;20222;-70
2021/09/15 07:44:35;;;;;;;16.85;9.05;;;18.70;99.90;;;19.06;78.26;100865.75;5102711;28;20198;-69
2021/09/15 07:47:03;;;;;;;17.27;9.52;;;18.70;99.90;;;19.13;78.00;100878.50;5102072;28;20186;-71
2021/09/15 07:49:29;;;;;;;21.25;9.93;;;18.80;99.90;;;19.20;78.37;100874.44;5101419;28;20199;-71
2021/09/15 07:51:57;;;;;;;19.60;9.43;;;18.90;99.90;;;19.28;78.05;100872.09;5099785;28;20237;-68
2021/09/15 07:54:23;;;;;;;18.63;9.02;;;19.00;99.90;;;19.36;77.56;100876.88;5102637;28;20191;-71
2021/09/15 07:56:51;;;;;;;16.17;8.90;;;19.10;99.90;;;19.44;77.74;100878.03;5108115;28;20225;-70
2021/09/15 07:59:19;;;;;;;20.48;9.85;;;19.20;99.90;;;19.55;77.50;100883.44;5100377;28;20654;-71
2021/09/15 08:01:46;;;;;;;16.60;8.43;;;19.30;99.90;;;19.65;76.84;100876.50;5105849;28;20218;-72
2021/09/15 08:04:13;;;;;;;16.52;9.57;;;19.50;99.90;;;19.74;77.06;100875.81;5103876;28;20202;-71
2021/09/15 08:06:39;;;;;;;15.23;8.60;;;19.60;99.90;;;19.82;76.86;100878.78;5100633;28;20194;-70
2021/09/15 08:09:06;;;;;;;17.63;8.95;;;19.70;99.90;;;19.90;77.01;100881.72;5108790;28;20191;-70
2021/09/15 08:11:33;;;;;;;16.15;8.60;;;19.80;99.90;;;19.98;76.54;100868.72;5105756;28;20205;-70
2021/09/15 08:14:00;;;;;;;16.65;8.55;;;19.90;99.90;;;20.08;76.21;100862.72;5101042;28;20190;-69
2021/09/15 08:16:28;;;;;;;15.60;8.48;;;20.00;99.90;;;20.15;76.26;100869.25;5107995;28;20648;-66
2021/09/15 08:18:56;;;;;;;15.73;8.77;;;20.10;99.90;;;20.20;76.18;100869.78;5104936;28;20536;-66
2021/09/15 08:21:23;;;;;;;17.77;8.52;;;20.10;99.90;;;20.18;75.62;100864.59;5107717;28;20222;-71
2021/09/15 08:23:49;;;;;;;15.15;8.50;;;20.10;99.90;;;20.15;75.57;100862.19;5101997;28;20222;-69
2021/09/15 08:26:18;;;;;;;15.77;8.10;;;20.10;99.90;;;20.13;75.32;100865.91;5110820;28;20587;-71
2021/09/15 08:28:45;;;;;;;19.27;9.05;;;20.00;99.90;;;20.15;75.46;100863.94;5112251;27;20232;-70
2021/09/15 08:31:12;;;;;;;15.73;8.45;;;20.00;99.90;;;20.16;75.50;100857.72;5110883;28;20226;-68
2021/09/15 08:33:40;;;;;;;14.77;8.23;;;20.00;99.90;;;20.19;75.24;100854.81;5104160;28;20544;-69
2021/09/15 08:36:07;;;;;;;17.88;8.10;;;20.00;99.90;;;20.21;75.33;100853.72;5106167;28;20186;-68
2021/09/15 08:38:34;;;;;;;15.15;8.32;;;20.00;99.90;;;20.27;75.29;100849.78;5104559;28;20315;-69
2021/09/15 08:41:01;;;;;;;16.55;8.15;;;20.10;99.90;;;20.33;75.16;100851.97;5103948;28;20191;-70
2021/09/15 08:43:29;;;;;;;16.20;8.50;;;20.20;99.90;;;20.40;75.08;100847.88;5106143;28;20203;-70
2021/09/15 08:46:01;;;;;;;16.33;8.50;;;20.20;99.90;;;20.47;74.70;100849.09;5104078;28;20217;-70
2021/09/15 08:48:34;;;;;;;14.25;8.15;;;20.30;99.90;;;20.53;74.59;100848.66;5103483;28;20186;-71
2021/09/15 08:51:03;;;;;;;15.20;8.23;;;20.40;99.90;;;20.59;74.83;100837.53;5103829;28;21202;-71
2021/09/15 08:53:30;;;;;;;16.27;8.32;;;20.50;99.90;;;20.63;74.69;100841.66;5106377;28;20187;-68
2021/09/15 08:55:56;;;;;;;15.88;8.43;;;20.50;99.90;;;20.60;74.77;100837.41;5105525;28;20545;-70
2021/09/15 08:58:24;;;;;;;17.00;8.30;;;20.50;99.90;;;20.60;74.66;100840.06;5109644;28;20192;-70
2021/09/15 09:00:51;;;;;;;16.63;8.60;;;20.40;99.90;;;20.61;74.34;100835.59;5109043;28;20223;-68
2021/09/15 09:03:17;;;;;;;15.25;7.80;;;20.40;99.90;;;20.60;74.64;100833.91;5105478;28;20548;-69
2021/09/15 09:05:44;;;;;;;16.80;8.20;;;20.50;99.90;;;20.60;74.70;100825.91;5105338;28;20195;-69
2021/09/15 09:08:23;;;;;;;17.52;8.07;;;20.40;99.90;;;20.62;74.97;100829.31;5105258;28;20635;-70
2021/09/15 09:10:53;;;;;;;14.65;7.90;;;20.50;99.90;;;20.63;74.63;100833.69;5099744;28;20295;-70
2021/09/15 09:13:21;;;;;;;14.20;8.00;;;20.50;99.90;;;20.68;74.58;100821.69;5098795;28;20215;-69
2021/09/15 09:15:47;;;;;;;14.73;7.70;;;20.60;99.90;;;20.75;74.82;100827.38;5105572;28;20185;-70
2021/09/15 09:18:18;;;;;;;16.30;7.72;;;20.60;99.90;;;20.79;74.66;100824.38;5104736;28;20190;-69
2021/09/15 09:20:45;;;;;;;14.48;7.53;;;20.70;99.90;;;20.86;74.54;100830.06;5107000;28;20262;-70
2021/09/15 09:23:17;;;;;;;14.25;7.47;;;20.80;99.90;;;20.94;74.79;100832.97;5109919;28;20291;-69
2021/09/15 09:25:52;;;;;;;15.73;7.72;;;20.90;99.90;;;21.04;74.52;100831.31;5096061;28;20187;-70
2021/09/15 09:28:23;;;;;;;15.82;7.03;;;21.00;99.90;;;21.13;74.53;100825.28;5099264;28;20755;-70
2021/09/15 09:30:53;;;;;;;13.52;7.15;;;21.10;99.90;;;21.20;74.11;100820.31;5098646;28;20198;-69
2021/09/15 09:33:21;;;;;;;14.15;7.50;;;21.20;99.90;;;21.24;73.91;100821.72;5108437;27;20188;-69
2021/09/15 09:35:51;;;;;;;13.90;7.60;;;21.20;99.90;;;21.26;73.62;100820.66;5103800;28;20186;-70
2021/09/15 09:38:37;;;;;;;13.95;7.40;;;21.30;99.90;;;21.28;73.94;100817.88;5107698;28;20190;-70
2021/09/15 09:41:10;;;;;;;13.13;7.57;;;21.30;99.90;;;21.30;74.21;100819.44;5108954;28;20202;-69
2021/09/15 09:43:41;;;;;;;16.00;7.10;;;21.30;99.90;;;21.34;73.74;100812.91;5116813;28;20206;-69
2021/09/15 09:46:11;;;;;;;15.18;7.53;;;21.40;99.90;;;21.41;73.33;100808.78;5097702;28;20288;-68
2021/09/15 09:48:44;;;;;;;15.18;7.60;;;21.40;99.90;;;21.50;73.37;100801.84;5098757;28;20198;-71
2021/09/15 09:51:30;;;;;;;14.18;7.57;;;21.50;99.90;;;21.57;73.05;100806.53;5101621;28;20223;-70
2021/09/15 09:54:26;;;;;;;12.85;7.30;;;21.60;99.90;;;21.63;73.42;100811.38;5104382;28;20198;-70
2021/09/15 09:56:58;;;;;;;12.82;6.50;;;21.70;99.90;;;21.68;73.23;100798.53;5058198;28;20221;-71
2021/09/15 09:59:26;;;;;;;16.58;7.47;;;21.70;99.90;;;21.75;73.19;100802.38;5099292;28;21741;-71
2021/09/15 10:01:57;;;;;;;14.18;6.70;;;21.80;99.90;;;21.82;72.98;100794.78;5104480;28;20214;-70
2021/09/15 10:04:27;;;;;;;13.63;6.93;;;21.90;99.90;;;21.88;72.63;100794.25;5102729;28;20207;-71
2021/09/15 10:06:56;;;;;;;13.93;6.68;;;22.00;99.90;;;21.96;72.61;100797.97;5102024;28;20214;-70
2021/09/15 10:09:24;;;;;;;14.10;6.72;;;22.00;99.90;;;22.06;72.70;100790.91;5100929;28;20193;-70
2021/09/15 10:11:53;;;;;;;13.93;7.07;;;22.20;99.90;;;22.18;72.16;100784.53;5099747;28;20212;-71
2021/09/15 10:14:21;;;;;;;18.15;7.00;;;22.40;99.90;;;22.31;71.64;100782.50;5103420;28;20194;-71
2021/09/15 10:16:52;;;;;;;12.43;6.40;;;22.50;99.90;;;22.38;71.71;100773.00;5094156;28;20183;-70
2021/09/15 10:19:26;;;;;;;12.05;6.60;;;22.60;99.90;;;22.47;71.56;100770.53;5102608;28;20211;-69
2021/09/15 10:21:58;;;;;;;11.63;6.53;;;22.70;99.90;;;22.53;71.25;100775.31;5105999;28;20198;-71
2021/09/15 10:24:54;;;;;;;13.45;5.90;;;22.70;99.90;;;22.62;70.30;100771.91;5103624;28;20309;-71